Time;durP1;ratioP1;P1;durP2;ratioP2;P2;SDS_P1;SDS_P2;PMS_P1;PMS_P2;Temp;Humidity;BMP_temperature;BMP_pressure;BME280_temperature;BME280_humidity;BME280_pressure;Samples;Min_cycle;Max_cycle;Signal;HPM_P1;HPM_P2
2023/04/04 00:00:13;;;;;;;2.60;2.40;;;17.60;43.10;;;;;;5074513;28;20449;-83
2023/04/04 00:02:41;;;;;;;3.40;2.13;;;17.60;43.20;;;;;;5062164;28;20488;-82
2023/04/04 00:05:09;;;;;;;4.13;2.37;;;17.60;43.20;;;;;;5074060;28;20620;-83
2023/04/04 00:07:37;;;;;;;2.17;2.00;;;17.60;43.40;;;;;;5075202;28;20473;-83
2023/04/04 00:10:09;;;;;;;3.90;2.60;;;17.50;43.20;;;;;;5073733;28;20429;-83
2023/04/04 00:12:37;;;;;;;2.33;2.10;;;17.50;43.20;;;;;;5074359;28;20446;-83
2023/04/04 00:15:06;;;;;;;2.30;2.10;;;17.50;43.20;;;;;;5077368;28;20445;-83
2023/04/04 00:17:34;;;;;;;2.50;2.30;;;17.40;43.40;;;;;;5071691;28;20437;-83
2023/04/04 00:20:03;;;;;;;4.40;2.13;;;17.40;43.30;;;;;;5071404;28;20459;-83
2023/04/04 00:22:31;;;;;;;2.33;1.80;;;17.40;43.30;;;;;;5072224;28;20542;-81
2023/04/04 00:24:59;;;;;;;2.60;2.00;;;17.40;43.40;;;;;;5062998;28;20449;-82
2023/04/04 00:27:29;;;;;;;3.73;2.00;;;17.40;43.40;;;;;;5068533;28;20462;-82
2023/04/04 00:29:57;;;;;;;3.43;2.07;;;17.30;43.20;;;;;;5072825;28;20447;-82
2023/04/04 00:32:25;;;;;;;2.63;2.10;;;17.30;43.40;;;;;;5077271;28;20453;-83
2023/04/04 00:34:53;;;;;;;1.83;1.73;;;17.20;43.20;;;;;;5066207;28;20461;-82
2023/04/04 00:37:22;;;;;;;4.83;2.30;;;17.20;43.40;;;;;;5076773;28;20449;-82
2023/04/04 00:39:50;;;;;;;2.50;2.30;;;17.20;43.30;;;;;;5074104;28;20451;-83
2023/04/04 00:42:17;;;;;;;2.27;2.07;;;17.20;43.50;;;;;;5084067;28;20563;-82
2023/04/04 00:44:47;;;;;;;2.40;2.07;;;17.20;43.50;;;;;;5075772;28;20517;-83
2023/04/04 00:47:15;;;;;;;2.60;2.40;;;17.10;43.40;;;;;;5086199;28;20425;-84
2023/04/04 00:49:44;;;;;;;3.80;2.00;;;17.10;43.40;;;;;;5078415;28;20444;-83
2023/04/04 00:52:12;;;;;;;3.97;2.00;;;17.10;43.40;;;;;;5080357;28;20449;-83
2023/04/04 00:54:40;;;;;;;4.07;2.20;;;17.10;43.30;;;;;;5079683;28;20441;-84
2023/04/04 00:57:08;;;;;;;2.83;2.30;;;17.10;43.40;;;;;;5072468;28;20429;-83
2023/04/04 00:59:36;;;;;;;4.33;2.27;;;17.00;43.40;;;;;;5074385;28;20457;-82
2023/04/04 01:02:05;;;;;;;2.60;2.40;;;16.90;43.40;;;;;;5074199;28;20470;-81
2023/04/04 01:04:33;;;;;;;2.87;2.30;;;17.00;43.50;;;;;;5067540;28;20442;-83
2023/04/04 01:07:01;;;;;;;3.83;2.20;;;16.90;43.40;;;;;;5075488;28;20455;-82
2023/04/04 01:09:29;;;;;;;3.33;2.37;;;16.90;43.40;;;;;;5057844;28;20449;-83
2023/04/04 01:11:57;;;;;;;3.70;2.60;;;16.90;43.50;;;;;;5068234;28;20451;-82
2023/04/04 01:14:25;;;;;;;2.70;2.20;;;16.90;43.40;;;;;;5075920;28;20453;-82
2023/04/04 01:16:53;;;;;;;2.67;2.40;;;16.80;43.60;;;;;;5072808;28;20455;-82
2023/04/04 01:19:26;;;;;;;4.17;2.40;;;16.80;43.60;;;;;;5072273;28;20542;-82
2023/04/04 01:21:54;;;;;;;3.83;2.13;;;16.70;43.50;;;;;;5074388;28;20489;-82
2023/04/04 01:24:22;;;;;;;2.60;2.27;;;16.70;43.50;;;;;;5070473;28;20453;-83
2023/04/04 01:26:51;;;;;;;2.77;2.30;;;16.70;43.50;;;;;;5078200;28;20473;-82
2023/04/04 01:29:20;;;;;;;2.20;2.00;;;16.70;43.60;;;;;;5067567;28;20470;-82
2023/04/04 01:31:49;;;;;;;3.50;2.30;;;16.60;43.60;;;;;;5073321;28;20456;-83
2023/04/04 01:34:20;;;;;;;2.60;1.77;;;16.60;43.70;;;;;;5077611;28;20552;-83
2023/04/04 01:36:55;;;;;;;2.77;2.57;;;16.60;43.70;;;;;;5080097;28;20462;-82
2023/04/04 01:39:25;;;;;;;2.60;2.40;;;16.60;43.70;;;;;;5076190;28;20481;-82
2023/04/04 01:41:54;;;;;;;2.50;2.30;;;16.60;43.60;;;;;;5078695;28;20453;-82
2023/04/04 01:44:22;;;;;;;5.57;2.30;;;16.50;43.60;;;;;;5079271;28;20442;-82
2023/04/04 01:46:53;;;;;;;2.50;2.30;;;16.50;43.60;;;;;;5075090;28;20493;-82
2023/04/04 01:49:22;;;;;;;3.03;2.20;;;16.50;43.60;;;;;;5072727;28;20480;-82
2023/04/04 01:51:50;;;;;;;2.37;2.17;;;16.50;43.50;;;;;;5060662;28;20477;-81
2023/04/04 01:54:18;;;;;;;2.60;2.23;;;16.40;43.50;;;;;;5076546;28;20932;-82
2023/04/04 01:56:46;;;;;;;2.30;2.10;;;16.40;43.70;;;;;;5074209;28;20455;-81
2023/04/04 01:59:16;;;;;;;6.27;2.00;;;16.40;43.80;;;;;;5073183;28;20470;-81
2023/04/04 02:01:44;;;;;;;2.27;2.17;;;16.40;43.70;;;;;;5076371;28;20544;-82
2023/04/04 02:04:13;;;;;;;2.90;2.47;;;16.30;43.70;;;;;;5076064;28;20474;-82
2023/04/04 02:06:41;;;;;;;2.83;2.10;;;16.30;43.80;;;;;;5071720;28;20454;-82
2023/04/04 02:09:09;;;;;;;2.50;2.30;;;16.30;43.80;;;;;;5075075;28;20473;-83
2023/04/04 02:11:37;;;;;;;4.80;2.90;;;16.20;43.60;;;;;;5081555;28;20453;-85
2023/04/04 02:14:05;;;;;;;3.63;2.40;;;16.20;43.70;;;;;;5088601;28;20449;-81
2023/04/04 02:16:35;;;;;;;3.20;2.93;;;16.20;43.80;;;;;;5072822;28;20452;-82
2023/04/04 02:19:03;;;;;;;2.70;2.57;;;16.20;43.70;;;;;;5078479;28;20476;-82
2023/04/04 02:21:31;;;;;;;3.60;2.17;;;16.20;43.80;;;;;;5064635;28;20442;-82
2023/04/04 02:23:59;;;;;;;2.80;2.60;;;16.10;43.80;;;;;;5069177;28;20474;-82
2023/04/04 02:26:27;;;;;;;2.90;2.70;;;16.10;43.80;;;;;;5063972;28;20464;-82
2023/04/04 02:28:55;;;;;;;2.30;2.10;;;16.10;43.90;;;;;;5071297;28;20497;-82
2023/04/04 02:31:23;;;;;;;2.67;2.47;;;16.00;43.70;;;;;;5069295;28;20456;-83
2023/04/04 02:33:52;;;;;;;2.87;2.20;;;16.00;44.00;;;;;;5080685;28;20481;-82
2023/04/04 02:36:21;;;;;;;2.43;2.23;;;16.00;44.00;;;;;;5068419;28;20558;-82
2023/04/04 02:38:48;;;;;;;2.33;2.23;;;16.00;44.00;;;;;;5072234;28;20478;-82
2023/04/04 02:41:16;;;;;;;2.33;2.17;;;16.00;44.00;;;;;;5066499;28;20453;-82
2023/04/04 02:43:44;;;;;;;2.50;2.30;;;15.90;44.10;;;;;;5080251;28;20472;-83
2023/04/04 02:46:12;;;;;;;3.50;2.70;;;15.90;44.00;;;;;;5080842;28;20453;-83
2023/04/04 02:48:50;;;;;;;2.20;2.10;;;15.90;44.00;;;;;;5067703;28;20473;-83
2023/04/04 02:51:20;;;;;;;3.30;2.30;;;15.90;44.10;;;;;;5069075;28;20460;-83
2023/04/04 02:53:48;;;;;;;2.60;2.40;;;15.80;44.10;;;;;;5076176;28;20446;-84
2023/04/04 02:56:16;;;;;;;3.33;2.27;;;15.80;44.00;;;;;;5074932;28;20454;-82
2023/04/04 02:58:44;;;;;;;2.30;2.10;;;15.80;44.10;;;;;;5074978;28;20461;-81
2023/04/04 03:01:12;;;;;;;2.57;2.37;;;15.80;43.90;;;;;;5065967;28;20456;-82
2023/04/04 03:03:40;;;;;;;2.27;2.17;;;15.70;44.00;;;;;;5063451;28;20470;-82
2023/04/04 03:06:08;;;;;;;4.30;2.50;;;15.70;44.00;;;;;;5067856;28;20450;-82
2023/04/04 03:08:37;;;;;;;2.87;2.20;;;15.70;44.20;;;;;;5068660;28;20465;-83
2023/04/04 03:11:05;;;;;;;2.47;2.30;;;15.70;44.20;;;;;;5063120;28;20454;-83
2023/04/04 03:13:33;;;;;;;1.97;1.87;;;15.70;44.20;;;;;;5071096;28;20448;-83
2023/04/04 03:16:03;;;;;;;2.70;2.20;;;15.70;44.20;;;;;;5067574;28;20441;-83
2023/04/04 03:18:32;;;;;;;2.83;2.40;;;15.60;44.10;;;;;;5069490;28;20464;-82
2023/04/04 03:21:00;;;;;;;2.30;2.10;;;15.60;44.10;;;;;;5069013;28;20457;-83
2023/04/04 03:23:28;;;;;;;2.23;2.13;;;15.60;44.20;;;;;;5072358;28;20473;-84
2023/04/04 03:25:57;;;;;;;3.80;2.10;;;15.60;44.10;;;;;;5070949;28;20450;-82
2023/04/04 03:28:25;;;;;;;3.00;1.90;;;15.50;44.00;;;;;;5072931;28;20480;-82
2023/04/04 03:30:53;;;;;;;3.43;2.50;;;15.50;44.20;;;;;;5076431;28;20463;-83
2023/04/04 03:33:21;;;;;;;2.30;2.10;;;15.50;44.00;;;;;;5081157;28;20443;-82
2023/04/04 03:35:48;;;;;;;5.53;2.40;;;15.50;44.00;;;;;;5069273;28;20485;-84
2023/04/04 03:38:17;;;;;;;2.37;2.03;;;15.50;44.20;;;;;;5075894;28;20500;-83
2023/04/04 03:40:45;;;;;;;3.17;1.93;;;15.40;44.10;;;;;;5080682;28;20446;-84
2023/04/04 03:43:15;;;;;;;2.57;2.37;;;15.40;44.20;;;;;;5076838;28;20472;-83
2023/04/04 03:45:43;;;;;;;3.13;2.20;;;15.40;44.20;;;;;;5076975;28;20434;-83
2023/04/04 03:48:11;;;;;;;2.47;2.13;;;15.40;44.30;;;;;;5080992;28;20472;-83
2023/04/04 03:50:39;;;;;;;2.67;2.03;;;15.30;43.90;;;;;;5081326;28;20542;-83
2023/04/04 03:53:08;;;;;;;2.60;2.30;;;15.30;44.20;;;;;;5078825;28;20446;-85
2023/04/04 03:55:36;;;;;;;2.40;2.03;;;15.30;44.20;;;;;;5074418;28;20476;-83
2023/04/04 03:58:04;;;;;;;2.63;2.10;;;15.30;44.30;;;;;;5074264;28;20468;-84
2023/04/04 04:00:33;;;;;;;4.50;2.20;;;15.20;44.30;;;;;;5066454;28;20461;-83
2023/04/04 04:03:01;;;;;;;2.27;2.07;;;15.30;44.30;;;;;;5068018;28;20457;-83
2023/04/04 04:05:29;;;;;;;2.40;2.20;;;15.20;44.30;;;;;;5076775;28;20493;-82
2023/04/04 04:07:57;;;;;;;2.03;1.80;;;15.30;44.30;;;;;;5077391;28;20456;-83
2023/04/04 04:10:25;;;;;;;4.20;2.20;;;15.20;44.20;;;;;;5082670;28;20453;-83
2023/04/04 04:12:53;;;;;;;2.30;2.10;;;15.20;44.20;;;;;;5073927;28;20450;-83
2023/04/04 04:15:21;;;;;;;6.03;2.10;;;15.20;44.40;;;;;;5073694;28;20448;-84
2023/04/04 04:17:50;;;;;;;2.67;1.93;;;15.20;44.40;;;;;;5068833;28;20470;-83
2023/04/04 04:20:18;;;;;;;3.37;2.00;;;15.10;44.50;;;;;;5064900;28;20473;-82
2023/04/04 04:22:46;;;;;;;2.70;2.27;;;15.10;44.40;;;;;;5076272;28;20453;-83
2023/04/04 04:25:15;;;;;;;3.27;2.03;;;15.10;44.40;;;;;;5064596;28;20565;-82
2023/04/04 04:27:44;;;;;;;3.80;2.07;;;15.10;44.40;;;;;;5075207;28;20465;-82
2023/04/04 04:30:13;;;;;;;2.10;2.00;;;15.10;44.40;;;;;;5072949;28;20513;-83
2023/04/04 04:32:41;;;;;;;1.97;1.70;;;15.10;44.50;;;;;;5072362;28;20453;-82
2023/04/04 04:35:11;;;;;;;2.60;1.87;;;15.10;44.70;;;;;;5073091;28;20465;-82
2023/04/04 04:37:39;;;;;;;3.43;1.90;;;15.00;44.50;;;;;;5062960;28;20499;-83
2023/04/04 04:40:09;;;;;;;2.00;1.80;;;15.00;44.50;;;;;;5064581;28;20455;-82
2023/04/04 04:42:37;;;;;;;2.00;1.90;;;15.00;44.60;;;;;;5074049;28;20442;-82
2023/04/04 04:45:06;;;;;;;3.07;2.20;;;15.00;44.60;;;;;;5075876;28;20465;-83
2023/04/04 04:47:36;;;;;;;3.00;2.20;;;15.00;44.60;;;;;;5068965;28;20459;-84
2023/04/04 04:50:05;;;;;;;3.17;2.20;;;15.00;44.50;;;;;;5079313;28;20466;-83
2023/04/04 04:52:36;;;;;;;1.77;1.67;;;15.00;44.60;;;;;;5076143;28;20441;-83
2023/04/04 04:55:05;;;;;;;2.10;1.90;;;14.90;44.50;;;;;;5073239;28;20449;-83
2023/04/04 04:57:34;;;;;;;2.10;2.00;;;14.90;44.50;;;;;;5075263;28;20442;-82
2023/04/04 05:00:03;;;;;;;1.60;1.50;;;14.90;44.40;;;;;;5071875;28;20458;-83
2023/04/04 05:02:31;;;;;;;2.23;1.80;;;14.90;44.70;;;;;;5079458;28;20531;-82
2023/04/04 05:04:59;;;;;;;1.60;1.50;;;14.90;44.70;;;;;;5065154;28;20521;-83
2023/04/04 05:07:27;;;;;;;3.13;2.07;;;14.90;44.60;;;;;;5074749;28;20457;-83
2023/04/04 05:09:57;;;;;;;2.03;1.77;;;14.80;44.70;;;;;;5072999;28;20451;-83
2023/04/04 05:12:25;;;;;;;3.37;2.37;;;14.80;44.60;;;;;;5075779;28;20454;-82
2023/04/04 05:14:53;;;;;;;1.90;1.80;;;14.80;44.60;;;;;;5078110;28;20485;-83
2023/04/04 05:17:22;;;;;;;2.00;1.90;;;14.80;44.80;;;;;;5073318;28;20451;-83
2023/04/04 05:19:50;;;;;;;2.00;1.90;;;14.80;44.80;;;;;;5087579;28;20469;-85
2023/04/04 05:22:18;;;;;;;1.90;1.80;;;14.80;44.80;;;;;;5067320;28;20473;-82
2023/04/04 05:24:46;;;;;;;2.37;2.20;;;14.80;44.70;;;;;;5064676;28;20477;-82
2023/04/04 05:27:15;;;;;;;1.80;1.70;;;14.80;44.80;;;;;;5078807;28;20450;-82
2023/04/04 05:29:45;;;;;;;3.53;2.40;;;14.80;44.80;;;;;;5070790;28;20438;-82
2023/04/04 05:32:13;;;;;;;2.20;2.07;;;14.80;44.80;;;;;;5076711;28;20442;-82
2023/04/04 05:34:41;;;;;;;3.30;2.10;;;14.80;44.90;;;;;;5072464;28;20509;-82
2023/04/04 05:37:09;;;;;;;2.17;2.00;;;14.80;44.80;;;;;;5072558;28;20457;-82
2023/04/04 05:39:38;;;;;;;3.50;2.17;;;14.70;44.70;;;;;;5059112;28;20465;-82
2023/04/04 05:42:06;;;;;;;2.70;2.03;;;14.70;44.80;;;;;;5072554;28;20476;-83
2023/04/04 05:44:36;;;;;;;2.60;2.40;;;14.70;45.00;;;;;;5073594;28;20564;-83
2023/04/04 05:47:03;;;;;;;3.23;2.27;;;14.70;44.90;;;;;;5073548;28;20437;-81
2023/04/04 05:49:31;;;;;;;2.50;2.00;;;14.70;44.90;;;;;;5071342;28;20449;-81
2023/04/04 05:52:00;;;;;;;2.40;2.20;;;14.70;44.90;;;;;;5068246;28;20450;-82
2023/04/04 05:54:28;;;;;;;2.63;2.43;;;14.70;44.70;;;;;;5069927;28;20452;-82
2023/04/04 05:56:55;;;;;;;2.60;2.40;;;14.70;44.80;;;;;;5077435;28;20454;-82
2023/04/04 05:59:23;;;;;;;2.70;2.50;;;14.70;45.30;;;;;;5070645;28;20465;-82
2023/04/04 06:01:58;;;;;;;1.87;1.77;;;14.70;44.90;;;;;;5081438;28;20476;-85
2023/04/04 06:04:26;;;;;;;3.00;2.60;;;14.70;44.80;;;;;;5076776;28;20464;-82
2023/04/04 06:06:54;;;;;;;3.30;2.23;;;14.70;44.90;;;;;;5073606;28;20452;-82
2023/04/04 06:09:22;;;;;;;2.40;2.20;;;14.80;45.00;;;;;;5075340;28;20473;-83
2023/04/04 06:11:50;;;;;;;2.80;2.60;;;14.80;44.90;;;;;;5070100;28;20461;-82
2023/04/04 06:14:18;;;;;;;2.70;2.50;;;14.80;45.00;;;;;;5075279;28;20457;-83
2023/04/04 06:16:46;;;;;;;3.97;2.27;;;14.80;44.80;;;;;;5077108;28;20452;-82
2023/04/04 06:19:16;;;;;;;2.83;2.50;;;14.80;44.90;;;;;;5068255;28;20468;-82
2023/04/04 06:21:46;;;;;;;2.57;2.37;;;14.90;45.00;;;;;;5073652;28;20538;-83
2023/04/04 06:24:15;;;;;;;2.80;2.50;;;14.90;44.90;;;;;;5070866;28;20453;-83
2023/04/04 06:26:43;;;;;;;3.20;2.70;;;14.90;44.90;;;;;;5065633;28;20529;-83
2023/04/04 06:29:12;;;;;;;2.20;2.10;;;14.90;45.00;;;;;;5074527;28;20476;-82
2023/04/04 06:31:39;;;;;;;3.23;2.93;;;14.90;45.00;;;;;;5077900;28;20456;-82
2023/04/04 06:34:07;;;;;;;2.50;2.30;;;14.90;45.00;;;;;;5077362;28;20471;-82
2023/04/04 06:36:37;;;;;;;2.80;2.40;;;14.90;45.00;;;;;;5069654;28;20453;-82
2023/04/04 06:39:05;;;;;;;2.67;2.37;;;15.00;45.00;;;;;;5069915;28;20542;-82
2023/04/04 06:41:33;;;;;;;3.73;2.80;;;14.90;45.00;;;;;;5075798;28;20453;-82
2023/04/04 06:44:01;;;;;;;2.57;2.20;;;14.90;44.90;;;;;;5071614;28;20450;-83
2023/04/04 06:46:30;;;;;;;2.60;2.40;;;15.00;45.20;;;;;;5072760;28;20476;-82
2023/04/04 06:48:58;;;;;;;2.97;2.60;;;14.90;45.10;;;;;;5074711;28;20560;-83
2023/04/04 06:51:26;;;;;;;2.87;2.67;;;14.90;45.20;;;;;;5074286;28;20453;-82
2023/04/04 06:53:55;;;;;;;3.13;2.33;;;14.90;45.10;;;;;;5074209;28;20450;-82
2023/04/04 06:56:23;;;;;;;2.50;2.30;;;15.00;45.30;;;;;;5073173;28;20671;-81
2023/04/04 06:58:51;;;;;;;2.87;2.57;;;15.00;45.30;;;;;;5073585;28;20529;-82
2023/04/04 07:01:19;;;;;;;3.37;3.07;;;15.00;45.40;;;;;;5077176;28;20486;-82
2023/04/04 07:03:48;;;;;;;2.80;2.60;;;15.10;45.40;;;;;;5076564;28;20453;-83
2023/04/04 07:06:17;;;;;;;4.03;2.67;;;15.10;45.40;;;;;;5077375;28;20529;-82
2023/04/04 07:08:45;;;;;;;4.87;2.47;;;15.20;45.30;;;;;;5077412;28;20454;-84
2023/04/04 07:11:14;;;;;;;2.80;2.60;;;15.20;45.70;;;;;;5075030;28;20499;-83
2023/04/04 07:13:42;;;;;;;3.00;2.73;;;15.30;45.40;;;;;;5076936;28;20442;-82
2023/04/04 07:16:10;;;;;;;2.57;2.37;;;15.30;45.50;;;;;;5077431;28;20528;-82
2023/04/04 07:18:38;;;;;;;2.40;2.20;;;15.40;45.50;;;;;;5073892;28;20472;-82
2023/04/04 07:21:06;;;;;;;2.50;2.30;;;15.50;45.40;;;;;;5081182;28;20442;-83
2023/04/04 07:23:35;;;;;;;4.13;2.57;;;15.50;45.50;;;;;;5087912;28;20942;-82
2023/04/04 07:26:03;;;;;;;2.50;2.27;;;15.60;45.70;;;;;;5079692;28;20473;-81
2023/04/04 07:28:33;;;;;;;2.10;1.90;;;15.70;45.70;;;;;;5075972;28;20488;-83
2023/04/04 07:31:02;;;;;;;3.53;2.63;;;15.80;45.60;;;;;;5074732;28;20460;-83
2023/04/04 07:33:30;;;;;;;2.50;2.33;;;15.90;45.60;;;;;;5071419;28;20499;-82
2023/04/04 07:36:00;;;;;;;2.80;2.60;;;15.90;45.50;;;;;;5077010;28;20456;-82
2023/04/04 07:38:28;;;;;;;3.70;2.60;;;16.00;45.60;;;;;;5078135;28;20515;-82
2023/04/04 07:40:56;;;;;;;2.60;2.40;;;16.00;45.50;;;;;;5067703;28;20538;-83
2023/04/04 07:43:24;;;;;;;3.00;2.80;;;16.10;45.60;;;;;;5074050;28;20522;-83
2023/04/04 07:45:54;;;;;;;3.10;2.43;;;16.20;45.40;;;;;;5072532;28;20476;-82
2023/04/04 07:48:22;;;;;;;2.70;2.50;;;16.30;45.40;;;;;;5065606;28;20497;-82
2023/04/04 07:51:03;;;;;;;2.70;2.40;;;16.40;45.50;;;;;;5077202;28;20441;-82
2023/04/04 07:53:31;;;;;;;2.60;2.40;;;16.40;45.40;;;;;;5066559;28;20448;-81
2023/04/04 07:56:05;;;;;;;2.67;2.47;;;16.50;45.70;;;;;;5075823;28;20442;-81
2023/04/04 07:58:33;;;;;;;3.13;2.40;;;16.60;45.60;;;;;;5073022;28;20477;-81
2023/04/04 08:01:08;;;;;;;10.20;4.70;;;16.60;45.50;;;;;;5072288;28;20456;-80
2023/04/04 08:03:38;;;;;;;10.93;4.70;;;14.90;35.50;;;;;;5067126;28;20458;-79
2023/04/04 08:06:07;;;;;;;8.80;5.20;;;13.60;36.10;;;;;;5071248;28;20474;-83
2023/04/04 08:08:35;;;;;;;8.23;4.03;;;13.10;34.80;;;;;;5073997;28;20470;-81
2023/04/04 08:11:03;;;;;;;7.67;4.40;;;13.30;37.20;;;;;;5070069;28;20536;-80
2023/04/04 08:13:31;;;;;;;5.93;3.97;;;13.80;35.10;;;;;;5074199;28;20452;-80
2023/04/04 08:15:59;;;;;;;12.83;3.30;;;13.80;35.00;;;;;;5065922;28;20442;-79
2023/04/04 08:18:29;;;;;;;4.90;3.30;;;14.50;37.00;;;;;;5067175;28;20480;-80
2023/04/04 08:20:57;;;;;;;4.80;3.20;;;15.30;36.10;;;;;;5081645;28;20441;-80
2023/04/04 08:23:26;;;;;;;5.70;3.43;;;15.90;35.30;;;;;;5073668;28;20445;-79
2023/04/04 08:25:54;;;;;;;6.03;3.40;;;16.50;35.10;;;;;;5084889;28;20532;-80
2023/04/04 08:28:22;;;;;;;5.70;4.60;;;17.00;35.20;;;;;;5073702;28;20469;-78
2023/04/04 08:30:52;;;;;;;10.37;5.60;;;17.40;35.30;;;;;;5067448;28;20468;-80
2023/04/04 08:33:21;;;;;;;9.00;5.63;;;17.80;35.40;;;;;;5069946;28;20832;-79
2023/04/04 08:35:52;;;;;;;11.20;6.50;;;18.00;35.30;;;;;;5069717;28;20466;-80
2023/04/04 08:38:21;;;;;;;11.57;6.23;;;18.30;35.60;;;;;;5071910;28;20507;-80
2023/04/04 08:40:49;;;;;;;11.97;7.60;;;18.40;35.60;;;;;;5071159;28;20446;-81
2023/04/04 08:43:17;;;;;;;15.13;7.53;;;18.70;35.90;;;;;;5074231;28;20455;-80
2023/04/04 08:45:45;;;;;;;10.47;7.00;;;19.00;36.20;;;;;;5076570;28;20476;-80
2023/04/04 08:48:14;;;;;;;12.53;7.07;;;19.20;36.30;;;;;;5078994;28;20491;-81
2023/04/04 08:50:42;;;;;;;17.60;8.37;;;19.50;36.50;;;;;;5075480;28;20460;-81
2023/04/04 08:53:12;;;;;;;11.17;7.17;;;19.60;36.50;;;;;;5080265;28;20466;-80
2023/04/04 08:55:40;;;;;;;16.67;7.70;;;19.70;36.60;;;;;;5081304;28;20464;-80
2023/04/04 08:58:08;;;;;;;11.30;7.20;;;19.80;36.80;;;;;;5080658;28;20461;-79
2023/04/04 09:00:39;;;;;;;14.50;7.20;;;20.00;37.00;;;;;;5077842;28;20436;-78
2023/04/04 09:03:10;;;;;;;14.10;7.80;;;20.20;37.20;;;;;;5074087;28;20459;-79
2023/04/04 09:05:38;;;;;;;13.63;7.43;;;20.40;37.30;;;;;;5066804;28;20479;-78
2023/04/04 09:08:06;;;;;;;13.10;7.40;;;20.60;37.50;;;;;;5074052;28;20481;-80
2023/04/04 09:10:36;;;;;;;9.30;6.90;;;20.80;37.60;;;;;;5072452;28;20456;-80
2023/04/04 09:13:05;;;;;;;11.53;7.10;;;21.10;37.70;;;;;;5073723;28;20468;-80
2023/04/04 09:15:46;;;;;;;11.77;7.40;;;21.40;37.80;;;;;;5072199;28;20527;-80
2023/04/04 09:18:13;;;;;;;14.70;7.40;;;21.60;37.80;;;;;;5069976;28;20470;-80
2023/04/04 09:20:42;;;;;;;11.03;7.00;;;21.70;37.90;;;;;;5067468;28;20429;-80
2023/04/04 09:23:11;;;;;;;9.97;7.23;;;21.90;37.90;;;;;;5077777;28;20445;-79
2023/04/04 09:25:45;;;;;;;8.30;6.27;;;22.00;38.00;;;;;;5076838;28;20453;-80
2023/04/04 09:28:27;;;;;;;9.40;5.80;;;22.10;38.00;;;;;;5071271;28;20524;-79
2023/04/04 09:30:55;;;;;;;9.33;6.67;;;22.20;38.00;;;;;;5073153;28;20453;-79
2023/04/04 09:33:26;;;;;;;11.90;7.30;;;22.40;38.10;;;;;;5076363;28;20526;-80
2023/04/04 09:35:55;;;;;;;7.10;5.90;;;22.50;38.20;;;;;;5071869;28;20598;-79
2023/04/04 09:38:23;;;;;;;10.10;6.10;;;22.60;38.10;;;;;;5072397;28;20469;-78
2023/04/04 09:40:52;;;;;;;12.53;6.17;;;22.70;38.10;;;;;;5068038;28;20453;-80
2023/04/04 09:43:21;;;;;;;8.77;6.13;;;22.80;38.20;;;;;;5071875;28;20480;-79
2023/04/04 09:45:49;;;;;;;11.20;5.73;;;22.90;38.10;;;;;;5067649;28;20461;-80
2023/04/04 09:48:25;;;;;;;9.03;5.70;;;23.00;38.00;;;;;;5072577;28;20534;-80
2023/04/04 09:50:52;;;;;;;8.73;5.90;;;23.20;38.00;;;;;;5065799;28;20460;-79
2023/04/04 09:53:20;;;;;;;6.20;5.60;;;23.30;38.10;;;;;;5077082;28;20460;-79
2023/04/04 09:55:53;;;;;;;7.53;5.33;;;23.50;38.00;;;;;;5090903;28;20437;-80
2023/04/04 09:58:24;;;;;;;8.27;5.20;;;23.60;38.00;;;;;;5072635;28;20455;-80
2023/04/04 10:00:52;;;;;;;7.80;5.40;;;23.80;38.10;;;;;;5069881;28;20448;-80
2023/04/04 10:03:21;;;;;;;6.77;5.43;;;23.90;38.00;;;;;;5082173;28;20420;-81
2023/04/04 10:05:55;;;;;;;9.10;5.60;;;23.90;37.80;;;;;;5075624;28;20524;-79
2023/04/04 10:08:23;;;;;;;7.00;4.77;;;23.90;37.80;;;;;;5076311;28;20484;-78
2023/04/04 10:10:55;;;;;;;6.50;4.37;;;24.10;37.90;;;;;;5069783;28;20462;-79
2023/04/04 10:13:39;;;;;;;6.60;4.90;;;24.40;38.00;;;;;;5067456;28;20441;-78
2023/04/04 10:16:09;;;;;;;5.17;4.60;;;24.70;38.00;;;;;;5068005;28;20450;-77
2023/04/04 10:18:38;;;;;;;4.97;4.47;;;25.10;38.00;;;;;;5071559;28;20980;-78
2023/04/04 10:21:07;;;;;;;4.40;4.00;;;25.50;37.80;;;;;;5068734;28;20552;-78
2023/04/04 10:23:42;;;;;;;5.10;4.40;;;25.90;37.50;;;;;;5071894;28;20479;-79
2023/04/04 10:26:12;;;;;;;4.13;3.73;;;26.20;36.80;;;;;;5075943;28;20417;-78
2023/04/04 10:28:41;;;;;;;6.47;4.07;;;26.50;36.60;;;;;;5084889;28;20452;-77
2023/04/04 10:31:17;;;;;;;4.60;3.60;;;26.60;36.30;;;;;;5082350;28;20416;-79
2023/04/04 10:33:48;;;;;;;4.13;3.83;;;26.70;36.10;;;;;;5073640;28;20438;-78
2023/04/04 10:36:21;;;;;;;4.07;3.67;;;26.80;35.90;;;;;;5068991;28;20447;-78
2023/04/04 10:38:52;;;;;;;4.50;3.57;;;26.90;35.80;;;;;;5078483;28;20460;-79
2023/04/04 10:41:22;;;;;;;3.77;3.40;;;27.00;35.90;;;;;;5076456;28;20420;-79
2023/04/04 10:43:49;;;;;;;4.23;3.83;;;27.10;35.80;;;;;;5072291;28;20502;-79
2023/04/04 10:46:19;;;;;;;3.77;3.43;;;27.20;35.80;;;;;;5070059;28;20445;-80
2023/04/04 10:48:47;;;;;;;3.23;3.03;;;27.30;35.60;;;;;;5070846;28;20483;-77
2023/04/04 10:51:15;;;;;;;3.03;2.83;;;27.40;35.50;;;;;;5063360;28;20435;-77
2023/04/04 10:53:43;;;;;;;3.33;3.03;;;27.50;35.40;;;;;;5071972;28;20453;-76
2023/04/04 10:56:11;;;;;;;3.20;3.00;;;27.60;35.30;;;;;;5071036;28;20450;-77
2023/04/04 10:58:41;;;;;;;3.43;2.80;;;27.80;35.30;;;;;;5082003;28;20468;-78
2023/04/04 11:01:09;;;;;;;2.83;2.63;;;28.00;35.30;;;;;;5081709;28;20419;-78
2023/04/04 11:04:16;;;;;;;3.13;2.93;;;28.30;35.30;;;;;;5072163;28;20427;-79
2023/04/04 11:07:12;;;;;;;2.73;2.50;;;28.60;35.20;;;;;;4972418;28;20424;-76
2023/04/04 11:09:53;;;;;;;2.87;2.67;;;28.90;34.90;;;;;;4967344;28;20537;-78
2023/04/04 11:12:28;;;;;;;4.00;2.60;;;29.20;34.60;;;;;;5045404;28;20533;-78
2023/04/04 11:15:08;;;;;;;3.33;2.80;;;29.40;34.50;;;;;;5072414;28;20437;-78
2023/04/04 11:17:54;;;;;;;2.53;2.43;;;29.70;34.00;;;;;;5068792;28;20426;-77
2023/04/04 11:20:23;;;;;;;2.50;2.40;;;30.70;33.40;;;;;;5078404;28;20477;-77
2023/04/04 11:22:54;;;;;;;2.60;2.50;;;31.90;32.50;;;;;;5071505;28;20580;-78
2023/04/04 11:25:32;;;;;;;2.77;1.90;;;32.90;31.50;;;;;;5071347;28;20438;-78
2023/04/04 11:28:04;;;;;;;2.37;2.27;;;34.00;29.90;;;;;;5062171;28;21199;-78
2023/04/04 11:30:49;;;;;;;1.90;1.80;;;34.00;28.90;;;;;;5073089;28;20430;-78
2023/04/04 11:33:29;;;;;;;3.67;2.07;;;35.00;29.30;;;;;;5078154;28;20472;-80
2023/04/04 11:36:00;;;;;;;2.00;1.90;;;36.10;28.30;;;;;;5085283;28;20465;-79
2023/04/04 11:38:31;;;;;;;2.00;1.90;;;36.90;27.40;;;;;;5073743;28;20528;-79
2023/04/04 11:40:59;;;;;;;1.77;1.60;;;37.20;27.10;;;;;;5076838;28;20442;-80
2023/04/04 11:43:28;;;;;;;2.00;1.40;;;38.30;26.90;;;;;;5070915;28;20432;-78
2023/04/04 11:46:09;;;;;;;1.30;1.30;;;39.10;26.00;;;;;;5066220;28;20818;-78
2023/04/04 11:48:36;;;;;;;1.70;1.60;;;39.90;25.30;;;;;;5072390;28;20646;-78
2023/04/04 11:51:05;;;;;;;2.50;1.30;;;40.40;24.80;;;;;;5072096;28;20440;-78
2023/04/04 11:53:33;;;;;;;1.50;1.40;;;40.90;24.40;;;;;;5065354;28;20450;-79
2023/04/04 11:56:03;;;;;;;1.87;1.30;;;41.20;24.00;;;;;;5065729;28;20456;-78
2023/04/04 11:58:32;;;;;;;1.30;1.20;;;41.60;23.90;;;;;;5069266;28;20461;-78
2023/04/04 12:01:00;;;;;;;1.30;1.30;;;42.00;23.40;;;;;;5066600;28;20445;-78
2023/04/04 12:03:29;;;;;;;1.37;1.23;;;42.10;23.30;;;;;;5080831;28;20450;-79
2023/04/04 12:05:58;;;;;;;1.27;1.17;;;42.40;23.10;;;;;;5076837;28;20475;-79
2023/04/04 12:08:26;;;;;;;2.43;1.30;;;42.80;22.80;;;;;;5073336;28;20487;-79
2023/04/04 12:10:54;;;;;;;2.10;1.40;;;42.90;22.60;;;;;;5073630;28;20461;-79
2023/04/04 12:13:30;;;;;;;1.37;1.27;;;42.80;22.40;;;;;;5074768;28;20973;-79
2023/04/04 12:15:58;;;;;;;1.30;1.20;;;43.10;22.50;;;;;;5068565;28;20441;-78
2023/04/04 12:18:26;;;;;;;2.03;1.60;;;43.30;22.10;;;;;;5075137;28;20532;-79
2023/04/04 12:20:56;;;;;;;1.53;1.53;;;43.40;22.20;;;;;;5074501;28;20452;-79
2023/04/04 12:23:26;;;;;;;1.37;1.27;;;43.50;22.50;;;;;;5072341;28;20453;-78
2023/04/04 12:25:55;;;;;;;1.53;1.40;;;44.00;21.80;;;;;;5066620;28;20526;-79
2023/04/04 12:28:23;;;;;;;0.97;0.97;;;44.10;21.70;;;;;;5072109;28;20476;-78
2023/04/04 12:30:53;;;;;;;1.20;1.20;;;44.50;21.30;;;;;;5068636;28;20461;-78
2023/04/04 12:33:22;;;;;;;1.20;1.20;;;44.40;21.30;;;;;;5070095;28;20453;-78
2023/04/04 12:35:53;;;;;;;1.40;1.40;;;44.40;21.60;;;;;;5063900;28;20469;-78
2023/04/04 12:38:24;;;;;;;1.33;1.33;;;44.90;21.20;;;;;;5055366;28;20454;-78
2023/04/04 12:40:52;;;;;;;1.10;1.10;;;45.50;21.00;;;;;;5069505;28;20458;-78
2023/04/04 12:43:20;;;;;;;1.10;1.10;;;45.80;20.60;;;;;;5071067;28;20425;-79
2023/04/04 12:45:49;;;;;;;1.13;1.13;;;46.00;20.70;;;;;;5070748;28;20437;-78
2023/04/04 12:48:17;;;;;;;1.20;1.20;;;46.00;20.30;;;;;;5065211;28;20473;-78
2023/04/04 12:50:50;;;;;;;1.10;1.10;;;45.40;20.40;;;;;;5069062;28;20450;-79
2023/04/04 12:53:20;;;;;;;1.40;1.30;;;45.30;20.90;;;;;;5066826;28;20520;-79
2023/04/04 12:56:01;;;;;;;2.38;1.38;;;45.50;20.50;;;;;;5070760;28;20448;-78